createdAt,value
2022-09-22T00:01:17.537Z,3.37
2022-09-22T00:03:48.467Z,2.60
2022-09-22T00:06:20.124Z,2.77
2022-09-22T00:08:50.664Z,3.60
2022-09-22T00:11:21.261Z,2.70
2022-09-22T00:13:52.109Z,2.80
2022-09-22T00:16:22.152Z,2.83
2022-09-22T00:18:50.456Z,3.07
2022-09-22T00:21:23.152Z,3.00
2022-09-22T00:23:51.309Z,2.43
2022-09-22T00:26:21.595Z,2.97
2022-09-22T00:28:51.128Z,2.83
2022-09-22T00:31:22.417Z,3.30
2022-09-22T00:33:50.805Z,2.53
2022-09-22T00:36:22.438Z,2.83
2022-09-22T00:38:51.526Z,2.90
2022-09-22T00:41:23.178Z,2.20
2022-09-22T00:43:52.556Z,2.80
2022-09-22T00:46:23.297Z,2.33
2022-09-22T00:48:53.899Z,3.53
2022-09-22T00:51:26.150Z,3.43
2022-09-22T00:53:55.293Z,2.53
2022-09-22T00:56:27.360Z,3.00
2022-09-22T00:58:59.610Z,3.57
2022-09-22T01:01:27.324Z,2.20
2022-09-22T01:03:56.276Z,2.20
2022-09-22T01:06:28.767Z,2.60
2022-09-22T01:08:57.530Z,2.40
2022-09-22T01:11:26.239Z,3.10
2022-09-22T01:14:02.792Z,3.23
2022-09-22T01:16:42.893Z,2.63
2022-09-22T01:19:38.286Z,2.83
2022-09-22T01:22:17.497Z,3.50
2022-09-22T01:25:02.302Z,3.57
2022-09-22T01:28:05.723Z,3.03
2022-09-22T01:30:38.678Z,2.47
2022-09-22T01:33:42.092Z,2.60
2022-09-22T01:36:16.514Z,3.23
2022-09-22T01:38:55.623Z,2.57
2022-09-22T01:41:41.208Z,2.40
2022-09-22T01:44:13.744Z,2.33
2022-09-22T01:46:51.756Z,2.30
2022-09-22T01:49:21.838Z,2.57
2022-09-22T01:51:52.698Z,2.40
2022-09-22T01:54:25.949Z,2.50
2022-09-22T01:56:58.471Z,2.40
2022-09-22T01:59:29.874Z,2.33
2022-09-22T02:02:03.920Z,2.13
2022-09-22T02:04:36.534Z,2.80
2022-09-22T02:07:07.663Z,2.30
2022-09-22T02:09:36.957Z,2.30
2022-09-22T02:12:05.514Z,2.47
2022-09-22T02:14:33.717Z,1.90
2022-09-22T02:17:02.886Z,2.07
2022-09-22T02:19:34.256Z,2.50
2022-09-22T02:22:02.066Z,2.40
2022-09-22T02:24:32.906Z,2.00
2022-09-22T02:27:05.511Z,1.70
2022-09-22T02:29:38.238Z,1.93
2022-09-22T02:32:12.481Z,2.00
2022-09-22T02:34:40.579Z,2.60
2022-09-22T02:37:18.730Z,2.37
2022-09-22T02:39:50.770Z,1.73
2022-09-22T02:42:28.392Z,2.20
2022-09-22T02:45:01.927Z,2.30
2022-09-22T02:47:37.064Z,2.13
2022-09-22T02:50:09.886Z,2.40
2022-09-22T02:52:39.152Z,2.90
2022-09-22T02:55:08.429Z,2.40
2022-09-22T02:57:36.154Z,1.80
2022-09-22T03:00:05.512Z,1.93
2022-09-22T03:02:34.513Z,1.90
2022-09-22T03:05:02.481Z,2.17
2022-09-22T03:07:30.204Z,1.73
2022-09-22T03:09:57.904Z,2.03
2022-09-22T03:12:25.632Z,2.33
2022-09-22T03:14:53.449Z,1.80
2022-09-22T03:17:21.183Z,2.13
2022-09-22T03:19:50.732Z,2.23
2022-09-22T03:22:18.455Z,2.20
2022-09-22T03:24:46.143Z,2.20
2022-09-22T03:27:13.835Z,2.33
2022-09-22T03:29:41.557Z,2.23
2022-09-22T03:32:09.233Z,3.80
2022-09-22T03:34:36.980Z,2.50
2022-09-22T03:37:06.274Z,2.87
2022-09-22T03:39:34.004Z,2.35
2022-09-22T03:42:01.698Z,2.20
2022-09-22T03:44:29.409Z,2.17
2022-09-22T03:46:57.089Z,1.90
2022-09-22T03:49:25.108Z,2.13
2022-09-22T03:51:53.842Z,2.30
2022-09-22T03:54:22.901Z,2.07
2022-09-22T03:56:50.827Z,3.23
2022-09-22T03:59:18.595Z,2.43
2022-09-22T04:01:46.344Z,2.90
2022-09-22T04:04:14.144Z,2.10
2022-09-22T04:06:42.012Z,2.80
2022-09-22T04:09:09.941Z,2.77
2022-09-22T04:11:38.945Z,2.00
2022-09-22T04:14:06.615Z,3.00
2022-09-22T04:16:34.412Z,2.87
2022-09-22T04:19:04.886Z,2.60
2022-09-22T04:21:32.914Z,3.23
2022-09-22T04:24:00.661Z,2.87
2022-09-22T04:26:28.436Z,3.03
2022-09-22T04:28:57.587Z,3.33
2022-09-22T04:31:25.267Z,3.40
2022-09-22T04:33:53.047Z,2.90
2022-09-22T04:36:20.702Z,3.33
2022-09-22T04:38:48.437Z,3.63
2022-09-22T04:41:16.496Z,2.90
2022-09-22T04:43:44.202Z,2.87
2022-09-22T04:46:13.290Z,3.20
2022-09-22T04:48:41.003Z,3.70
2022-09-22T04:51:08.680Z,3.50
2022-09-22T04:53:36.381Z,3.43
2022-09-22T04:56:04.342Z,3.20
2022-09-22T04:58:32.058Z,2.50
2022-09-22T05:01:03.864Z,3.10
2022-09-22T05:03:33.277Z,3.17
2022-09-22T05:06:00.991Z,3.07
2022-09-22T05:08:28.683Z,2.80
2022-09-22T05:10:56.730Z,3.47
2022-09-22T05:13:25.412Z,3.50
2022-09-22T05:15:53.090Z,2.93
2022-09-22T05:18:21.088Z,2.80
2022-09-22T05:20:50.099Z,2.50
2022-09-22T05:23:17.793Z,3.00
2022-09-22T05:25:45.490Z,2.87
2022-09-22T05:28:13.514Z,2.73
2022-09-22T05:30:41.212Z,2.70
2022-09-22T05:33:08.957Z,2.30
2022-09-22T05:35:37.198Z,2.53
2022-09-22T05:38:06.446Z,2.40
2022-09-22T05:40:34.279Z,2.70
2022-09-22T05:43:01.988Z,2.57
2022-09-22T05:45:29.721Z,3.00
2022-09-22T05:47:57.444Z,2.80
2022-09-22T05:50:25.141Z,3.30
2022-09-22T05:53:02.265Z,2.70
2022-09-22T05:55:31.324Z,2.30
2022-09-22T05:57:59.978Z,2.13
2022-09-22T06:00:28.426Z,2.70
2022-09-22T06:02:56.242Z,2.77
2022-09-22T06:05:23.990Z,2.50
2022-09-22T06:07:59.099Z,2.70
2022-09-22T06:10:26.885Z,2.43
2022-09-22T06:13:00.244Z,2.60
2022-09-22T06:15:28.656Z,2.80
2022-09-22T06:17:56.737Z,2.30
2022-09-22T06:20:24.462Z,2.03
2022-09-22T06:22:52.230Z,2.60
2022-09-22T06:25:19.921Z,3.57
2022-09-22T06:27:48.860Z,2.93
2022-09-22T06:30:18.054Z,3.33
2022-09-22T06:32:46.490Z,2.80
2022-09-22T06:35:14.307Z,2.70
2022-09-22T06:37:41.984Z,3.90
2022-09-22T06:40:15.252Z,2.80
2022-09-22T06:42:44.938Z,3.30
2022-09-22T06:45:14.659Z,2.40
2022-09-22T06:47:43.690Z,2.67
2022-09-22T06:50:11.410Z,3.20
2022-09-22T06:52:39.082Z,2.00
2022-09-22T06:55:07.952Z,2.37
2022-09-22T06:57:35.667Z,3.37
2022-09-22T07:00:04.403Z,2.90
2022-09-22T07:02:32.067Z,2.40
2022-09-22T07:05:02.099Z,3.00
2022-09-22T07:07:32.027Z,2.60
2022-09-22T07:09:59.798Z,2.90
2022-09-22T07:12:28.551Z,2.67
2022-09-22T07:14:56.452Z,3.17
2022-09-22T07:17:24.456Z,3.10
2022-09-22T07:19:52.267Z,3.20
2022-09-22T07:22:21.440Z,3.77
2022-09-22T07:24:49.180Z,4.20
2022-09-22T07:27:18.114Z,4.10
2022-09-22T07:29:47.746Z,3.67
2022-09-22T07:32:15.556Z,3.30
2022-09-22T07:34:43.731Z,3.53
2022-09-22T07:37:12.035Z,3.67
2022-09-22T07:39:41.067Z,3.40
2022-09-22T07:42:08.778Z,3.93
2022-09-22T07:44:54.277Z,4.00
2022-09-22T07:47:41.951Z,3.67
2022-09-22T07:50:10.231Z,3.37
2022-09-22T07:52:37.922Z,3.80
2022-09-22T07:55:07.827Z,4.10
2022-09-22T07:57:38.346Z,3.03
2022-09-22T08:00:07.015Z,3.83
2022-09-22T08:02:34.964Z,3.97
2022-09-22T08:05:04.092Z,3.40
2022-09-22T08:07:32.868Z,5.00
2022-09-22T08:10:00.682Z,3.73
2022-09-22T08:12:29.797Z,3.40
2022-09-22T08:14:58.148Z,2.90
2022-09-22T08:17:25.923Z,2.70
2022-09-22T08:19:53.958Z,2.60
2022-09-22T08:22:22.907Z,2.77
2022-09-22T08:24:50.641Z,3.43
2022-09-22T08:27:18.997Z,3.67
2022-09-22T08:29:49.226Z,3.70
2022-09-22T08:32:19.182Z,4.50
2022-09-22T08:34:47.012Z,3.73
2022-09-22T08:37:14.820Z,3.50
2022-09-22T08:39:42.567Z,2.70
2022-09-22T08:42:19.528Z,2.87
2022-09-22T08:44:58.309Z,2.93
2022-09-22T08:47:50.316Z,2.93
2022-09-22T08:50:44.509Z,2.10
2022-09-22T08:53:17.301Z,2.80
2022-09-22T08:55:50.191Z,4.10
2022-09-22T08:58:31.873Z,4.03
2022-09-22T09:01:14.789Z,2.87
2022-09-22T09:03:55.969Z,3.23
2022-09-22T09:06:31.953Z,2.67
2022-09-22T09:09:22.751Z,3.70
2022-09-22T09:12:13.724Z,2.80
2022-09-22T09:15:09.588Z,2.73
2022-09-22T09:17:41.181Z,3.23
2022-09-22T09:20:17.856Z,2.77
2022-09-22T09:22:51.998Z,3.10
2022-09-22T09:25:24.180Z,2.83
2022-09-22T09:27:57.057Z,3.10
2022-09-22T09:30:24.881Z,2.63
2022-09-22T09:32:59.111Z,2.93
2022-09-22T09:35:39.704Z,2.97
2022-09-22T09:38:15.029Z,2.77
2022-09-22T09:40:44.645Z,2.97
2022-09-22T09:43:12.419Z,2.97
2022-09-22T09:45:51.773Z,2.30
2022-09-22T09:48:29.343Z,2.93
2022-09-22T09:51:03.297Z,2.70
2022-09-22T09:53:41.253Z,2.23
2022-09-22T09:56:23.390Z,2.63
2022-09-22T09:59:18.833Z,2.57
2022-09-22T10:01:50.716Z,1.80
2022-09-22T10:04:29.442Z,1.87
2022-09-22T10:07:10.343Z,1.80
2022-09-22T10:09:38.265Z,2.13
2022-09-22T10:12:06.388Z,1.70
2022-09-22T10:14:35.378Z,1.77
2022-09-22T10:17:03.896Z,1.67
2022-09-22T10:19:34.549Z,1.60
2022-09-22T10:22:22.894Z,1.50
2022-09-22T10:24:55.530Z,1.73
2022-09-22T10:27:24.802Z,1.43
2022-09-22T10:30:21.323Z,1.23
2022-09-22T10:33:07.467Z,1.57
2022-09-22T10:35:37.179Z,2.80
2022-09-22T10:38:13.906Z,1.20
2022-09-22T10:40:45.502Z,1.43
2022-09-22T10:43:24.178Z,1.50
2022-09-22T10:46:00.694Z,1.60
2022-09-22T10:48:40.812Z,1.73
2022-09-22T10:51:14.723Z,1.43
2022-09-22T10:54:08.007Z,1.57
2022-09-22T10:56:39.774Z,1.37
2022-09-22T10:59:41.560Z,1.80
2022-09-22T11:02:34.842Z,1.77
2022-09-22T11:05:45.090Z,1.93
2022-09-22T11:08:34.400Z,1.70
2022-09-22T11:11:28.871Z,1.90
2022-09-22T11:14:11.660Z,1.63
2022-09-22T11:16:52.121Z,1.30
2022-09-22T11:20:01.036Z,2.17
2022-09-22T11:22:48.717Z,1.50
2022-09-22T11:25:29.406Z,1.63
2022-09-22T11:28:10.797Z,1.40
2022-09-22T11:30:45.588Z,1.30
2022-09-22T11:33:33.638Z,1.67
2022-09-22T11:36:13.946Z,1.33
2022-09-22T11:39:08.571Z,1.40
2022-09-22T11:41:42.198Z,1.60
2022-09-22T11:44:33.440Z,1.80
2022-09-22T11:47:43.003Z,1.63
2022-09-22T11:50:52.953Z,1.60
2022-09-22T11:53:34.584Z,1.60
2022-09-22T11:56:19.670Z,1.40
2022-09-22T11:58:51.137Z,1.73
2022-09-22T12:01:23.530Z,1.35
2022-09-22T12:03:55.487Z,1.67
2022-09-22T12:06:28.978Z,1.40
2022-09-22T12:09:03.853Z,1.90
2022-09-22T12:11:35.769Z,1.40
2022-09-22T12:14:06.716Z,1.67
2022-09-22T12:16:41.852Z,1.60
2022-09-22T12:19:21.581Z,1.53
2022-09-22T12:21:57.246Z,1.10
2022-09-22T12:24:25.119Z,1.47
2022-09-22T12:26:53.700Z,1.60
2022-09-22T12:29:31.225Z,1.50
2022-09-22T12:32:00.017Z,1.77
2022-09-22T12:34:33.102Z,1.60
2022-09-22T12:37:10.803Z,1.50
2022-09-22T12:39:42.370Z,1.77
2022-09-22T12:42:21.646Z,1.30
2022-09-22T12:44:55.925Z,2.00
2022-09-22T12:47:31.555Z,1.53
2022-09-22T12:50:00.965Z,1.60
2022-09-22T12:52:59.803Z,1.77
2022-09-22T12:55:38.151Z,1.57
2022-09-22T12:58:39.919Z,1.37
2022-09-22T13:01:35.099Z,1.70
2022-09-22T13:04:13.214Z,1.50
2022-09-22T13:06:56.272Z,1.40
2022-09-22T13:09:26.983Z,1.97
2022-09-22T13:12:26.071Z,1.30
2022-09-22T13:15:17.166Z,1.50
2022-09-22T13:17:47.647Z,1.40
2022-09-22T13:20:30.496Z,1.10
2022-09-22T13:23:05.661Z,1.23
2022-09-22T13:25:33.420Z,1.20
2022-09-22T13:28:14.476Z,1.20
2022-09-22T13:30:44.178Z,1.40
2022-09-22T13:33:25.382Z,1.27
2022-09-22T13:36:00.501Z,1.50
2022-09-22T13:38:29.046Z,1.20
2022-09-22T13:40:56.726Z,1.37
2022-09-22T13:43:30.019Z,1.50
2022-09-22T13:45:59.646Z,1.57
2022-09-22T13:48:33.210Z,1.30
2022-09-22T13:51:04.277Z,0.90
2022-09-22T13:53:33.157Z,1.10
2022-09-22T13:56:01.126Z,1.30
2022-09-22T13:58:37.204Z,1.10
2022-09-22T14:01:14.409Z,0.97
2022-09-22T14:03:44.645Z,1.20
2022-09-22T14:06:15.071Z,1.10
2022-09-22T14:08:44.685Z,1.10
2022-09-22T14:11:16.109Z,1.13
2022-09-22T14:13:56.872Z,1.00
2022-09-22T14:16:29.341Z,1.73
2022-09-22T14:19:04.411Z,1.20
2022-09-22T14:21:41.636Z,1.23
2022-09-22T14:24:12.582Z,1.20
2022-09-22T14:26:41.266Z,1.20
2022-09-22T14:29:14.615Z,1.30
2022-09-22T14:31:46.248Z,1.07
2022-09-22T14:34:21.531Z,1.20
2022-09-22T14:36:50.289Z,1.40
2022-09-22T14:39:21.775Z,1.40
2022-09-22T14:41:55.111Z,1.30
2022-09-22T14:44:26.538Z,1.00
2022-09-22T14:46:56.571Z,1.10
2022-09-22T14:49:42.018Z,1.23
2022-09-22T14:52:16.723Z,1.30
2022-09-22T14:54:45.528Z,1.23
2022-09-22T14:57:16.325Z,1.53
2022-09-22T15:00:06.941Z,1.20
2022-09-22T15:02:42.222Z,1.40
2022-09-22T15:05:13.006Z,1.30
2022-09-22T15:07:47.288Z,1.67
2022-09-22T15:10:25.537Z,1.20
2022-09-22T15:12:54.072Z,1.20
2022-09-22T15:15:24.022Z,1.20
2022-09-22T15:18:10.858Z,1.00
2022-09-22T15:20:44.501Z,1.13
2022-09-22T15:23:18.657Z,1.60
2022-09-22T15:25:47.234Z,2.17
2022-09-22T15:28:17.586Z,1.70
2022-09-22T15:30:47.538Z,2.13
2022-09-22T15:33:16.566Z,1.27
2022-09-22T15:35:47.325Z,1.57
2022-09-22T15:38:19.130Z,1.83
2022-09-22T15:40:48.330Z,1.50
2022-09-22T15:43:20.337Z,1.20
2022-09-22T15:45:49.941Z,1.03
2022-09-22T15:48:24.563Z,1.30
2022-09-22T15:50:54.576Z,1.40
2022-09-22T15:53:22.922Z,1.33
2022-09-22T15:55:54.512Z,1.50
2022-09-22T15:58:25.726Z,1.30
2022-09-22T16:00:53.512Z,1.13
2022-09-22T16:03:23.894Z,1.10
2022-09-22T16:05:56.994Z,1.37
2022-09-22T16:08:31.191Z,1.33
2022-09-22T16:11:05.132Z,1.40
2022-09-22T16:13:33.207Z,1.27
2022-09-22T16:16:02.987Z,1.40
2022-09-22T16:18:32.814Z,1.43
2022-09-22T16:21:06.171Z,1.17
2022-09-22T16:23:34.156Z,1.27
2022-09-22T16:26:01.879Z,1.00
2022-09-22T16:28:29.536Z,1.27
2022-09-22T16:31:02.072Z,1.23
2022-09-22T16:33:29.964Z,1.10
2022-09-22T16:35:57.677Z,1.30
2022-09-22T16:38:26.731Z,1.30
2022-09-22T16:41:01.700Z,1.50
2022-09-22T16:43:29.377Z,2.23
2022-09-22T16:46:15.204Z,2.77
2022-09-22T16:48:42.929Z,2.83
2022-09-22T16:51:16.480Z,2.50
2022-09-22T16:53:52.756Z,1.93
2022-09-22T16:56:20.982Z,1.60
2022-09-22T16:58:48.943Z,2.00
2022-09-22T17:01:19.845Z,2.37
2022-09-22T17:03:49.834Z,2.80
2022-09-22T17:06:25.046Z,2.47
2022-09-22T17:08:56.831Z,3.10
2022-09-22T17:11:29.554Z,1.80
2022-09-22T17:13:59.794Z,1.83
2022-09-22T17:16:30.217Z,2.27
2022-09-22T17:19:02.243Z,2.10
2022-09-22T17:21:34.039Z,2.27
2022-09-22T17:24:06.094Z,2.50
2022-09-22T17:26:37.057Z,2.47
2022-09-22T17:29:06.320Z,2.20
2022-09-22T17:31:36.238Z,2.03
2022-09-22T17:34:04.410Z,1.87
2022-09-22T17:36:32.180Z,1.53
2022-09-22T17:39:01.337Z,1.70
2022-09-22T17:41:32.817Z,1.77
2022-09-22T17:44:02.988Z,1.90
2022-09-22T17:46:32.802Z,1.90
2022-09-22T17:49:18.297Z,1.63
2022-09-22T17:52:05.271Z,1.90
2022-09-22T17:54:55.554Z,1.70
2022-09-22T17:57:26.336Z,1.80
2022-09-22T17:59:55.084Z,1.80
2022-09-22T18:02:24.247Z,1.87
2022-09-22T18:04:52.746Z,2.27
2022-09-22T18:07:22.642Z,2.03
2022-09-22T18:09:51.990Z,2.13
2022-09-22T18:12:22.920Z,1.93
2022-09-22T18:14:53.094Z,2.00
2022-09-22T18:17:22.699Z,1.70
2022-09-22T18:19:50.417Z,2.13
2022-09-22T18:22:20.983Z,1.73
2022-09-22T18:24:50.405Z,2.10
2022-09-22T18:27:19.463Z,2.30
2022-09-22T18:29:49.886Z,1.73
2022-09-22T18:32:20.049Z,1.80
2022-09-22T18:34:48.244Z,2.10
2022-09-22T18:37:17.412Z,1.90
2022-09-22T18:39:45.605Z,1.63
2022-09-22T18:42:14.128Z,1.83
2022-09-22T18:44:42.278Z,2.37
2022-09-22T18:47:14.125Z,1.70
2022-09-22T18:49:44.233Z,1.73
2022-09-22T18:52:12.139Z,1.60
2022-09-22T18:54:42.886Z,1.80
2022-09-22T18:57:12.288Z,2.00
2022-09-22T18:59:40.674Z,2.00
2022-09-22T19:02:11.911Z,2.23
2022-09-22T19:04:40.010Z,1.73
2022-09-22T19:07:27.279Z,2.00
2022-09-22T19:09:54.995Z,1.80
2022-09-22T19:12:22.678Z,2.37
2022-09-22T19:14:54.382Z,2.23
2022-09-22T19:17:24.318Z,2.07
2022-09-22T19:19:52.089Z,3.03
2022-09-22T19:22:22.282Z,1.90
2022-09-22T19:24:50.741Z,1.97
2022-09-22T19:27:19.027Z,1.77
2022-09-22T19:29:46.704Z,1.60
2022-09-22T19:32:14.723Z,1.90
2022-09-22T19:34:42.496Z,1.73
2022-09-22T19:37:10.171Z,1.50
2022-09-22T19:39:39.219Z,2.03
2022-09-22T19:42:07.069Z,2.17
2022-09-22T19:44:34.851Z,2.03
2022-09-22T19:47:02.526Z,2.10
2022-09-22T19:49:31.242Z,1.70
2022-09-22T19:51:58.896Z,1.50
2022-09-22T19:54:26.982Z,2.00
2022-09-22T19:56:55.994Z,1.50
2022-09-22T19:59:23.772Z,1.80
2022-09-22T20:01:51.508Z,1.90
2022-09-22T20:04:20.991Z,2.00
2022-09-22T20:06:48.705Z,1.87
2022-09-22T20:09:16.556Z,2.93
2022-09-22T20:11:46.228Z,1.80
2022-09-22T20:14:22.080Z,2.13
2022-09-22T20:16:51.477Z,2.23
2022-09-22T20:19:20.080Z,1.90
2022-09-22T20:21:49.553Z,2.47
2022-09-22T20:24:19.642Z,2.23
2022-09-22T20:26:47.634Z,1.80
2022-09-22T20:29:17.902Z,2.00
2022-09-22T20:31:49.548Z,2.60
2022-09-22T20:34:20.042Z,2.10
2022-09-22T20:36:47.748Z,2.13
2022-09-22T20:39:15.871Z,2.20
2022-09-22T20:41:44.391Z,1.90
2022-09-22T20:44:14.515Z,2.43
2022-09-22T20:46:44.388Z,2.50
2022-09-22T20:49:14.207Z,2.00
2022-09-22T20:51:42.377Z,2.13
2022-09-22T20:54:10.343Z,2.17
2022-09-22T20:56:42.492Z,2.27
2022-09-22T20:59:10.716Z,2.50
2022-09-22T21:01:38.478Z,2.23
2022-09-22T21:04:07.665Z,2.30
2022-09-22T21:06:35.381Z,2.77
2022-09-22T21:09:20.864Z,2.20
2022-09-22T21:11:48.539Z,3.27
2022-09-22T21:14:16.355Z,2.50
2022-09-22T21:16:44.060Z,2.47
2022-09-22T21:19:13.331Z,2.90
2022-09-22T21:21:41.300Z,3.10
2022-09-22T21:24:11.101Z,2.90
2022-09-22T21:26:38.891Z,3.30
2022-09-22T21:29:06.607Z,3.00
2022-09-22T21:31:35.312Z,3.10
2022-09-22T21:34:03.093Z,3.80
2022-09-22T21:36:34.609Z,3.87
2022-09-22T21:39:02.290Z,3.17
2022-09-22T21:41:32.249Z,3.43
2022-09-22T21:43:59.979Z,3.20
2022-09-22T21:46:29.960Z,3.13
2022-09-22T21:49:00.755Z,3.27
2022-09-22T21:51:30.083Z,3.37
2022-09-22T21:53:59.095Z,3.27
2022-09-22T21:56:29.972Z,3.20
2022-09-22T21:58:58.574Z,3.67
2022-09-22T22:01:28.460Z,3.47
2022-09-22T22:03:58.352Z,3.20
2022-09-22T22:06:28.248Z,4.23
2022-09-22T22:09:02.230Z,3.67
2022-09-22T22:11:33.590Z,3.17
2022-09-22T22:14:02.748Z,3.37
2022-09-22T22:16:32.562Z,3.93
2022-09-22T22:19:00.315Z,3.57
2022-09-22T22:21:30.109Z,4.10
2022-09-22T22:24:19.872Z,3.87
2022-09-22T22:26:51.544Z,3.87
2022-09-22T22:29:19.867Z,3.10
2022-09-22T22:31:48.902Z,3.83
2022-09-22T22:34:18.141Z,3.73
2022-09-22T22:36:45.964Z,3.37
2022-09-22T22:39:14.300Z,3.20
2022-09-22T22:41:42.423Z,4.00
2022-09-22T22:44:12.822Z,4.23
2022-09-22T22:46:40.574Z,3.90
2022-09-22T22:49:08.309Z,3.53
2022-09-22T22:51:36.645Z,3.40
2022-09-22T22:54:05.525Z,3.67
2022-09-22T22:56:33.799Z,4.17
2022-09-22T22:59:01.576Z,3.70
2022-09-22T23:01:32.292Z,4.10
2022-09-22T23:04:01.617Z,4.00
2022-09-22T23:06:31.487Z,3.70
2022-09-22T23:08:59.721Z,5.17
2022-09-22T23:11:29.821Z,4.37
2022-09-22T23:14:01.433Z,4.30
2022-09-22T23:16:32.680Z,3.27
2022-09-22T23:19:02.572Z,3.40
2022-09-22T23:21:31.204Z,2.80
2022-09-22T23:23:59.797Z,4.57
2022-09-22T23:26:28.844Z,4.27
2022-09-22T23:28:58.517Z,3.70
2022-09-22T23:31:26.903Z,3.03
2022-09-22T23:33:57.502Z,4.07
2022-09-22T23:36:27.055Z,3.50
2022-09-22T23:38:55.813Z,3.43
2022-09-22T23:41:23.729Z,3.00
2022-09-22T23:43:51.638Z,3.67
2022-09-22T23:46:21.175Z,3.40
2022-09-22T23:48:48.940Z,2.93
2022-09-22T23:51:19.532Z,2.60
2022-09-22T23:53:47.439Z,2.47
2022-09-22T23:56:15.140Z,3.00
2022-09-22T23:58:42.802Z,2.60
